sensor_id;sensor_type;location;lat;lon;timestamp;temperature;humidity
35381;DHT22;21486;51.916;8.378;2023-06-05T00:01:36;14.30;82.40
35381;DHT22;21486;51.916;8.378;2023-06-05T00:04:02;14.20;82.70
35381;DHT22;21486;51.916;8.378;2023-06-05T00:06:28;14.20;82.80
35381;DHT22;21486;51.916;8.378;2023-06-05T00:08:54;14.20;83.20
35381;DHT22;21486;51.916;8.378;2023-06-05T00:11:20;14.10;83.90
35381;DHT22;21486;51.916;8.378;2023-06-05T00:13:47;14.00;84.00
35381;DHT22;21486;51.916;8.378;2023-06-05T00:16:12;14.10;83.90
35381;DHT22;21486;51.916;8.378;2023-06-05T00:18:38;14.00;85.10
35381;DHT22;21486;51.916;8.378;2023-06-05T00:21:03;14.20;83.90
35381;DHT22;21486;51.916;8.378;2023-06-05T00:23:29;14.10;84.20
35381;DHT22;21486;51.916;8.378;2023-06-05T00:25:57;13.90;85.50
35381;DHT22;21486;51.916;8.378;2023-06-05T00:28:22;13.80;86.00
35381;DHT22;21486;51.916;8.378;2023-06-05T00:33:02;13.70;86.10
35381;DHT22;21486;51.916;8.378;2023-06-05T00:35:27;13.80;86.30
35381;DHT22;21486;51.916;8.378;2023-06-05T00:37:53;13.80;85.80
35381;DHT22;21486;51.916;8.378;2023-06-05T00:40:18;13.80;86.10
35381;DHT22;21486;51.916;8.378;2023-06-05T00:42:44;13.90;85.70
35381;DHT22;21486;51.916;8.378;2023-06-05T00:45:09;13.70;86.10
35381;DHT22;21486;51.916;8.378;2023-06-05T00:47:35;13.70;87.20
35381;DHT22;21486;51.916;8.378;2023-06-05T00:50:02;13.70;86.90
35381;DHT22;21486;51.916;8.378;2023-06-05T00:52:28;13.80;86.00
35381;DHT22;21486;51.916;8.378;2023-06-05T00:54:54;13.70;86.20
35381;DHT22;21486;51.916;8.378;2023-06-05T00:57:20;13.70;85.80
35381;DHT22;21486;51.916;8.378;2023-06-05T00:59:50;13.60;86.20
35381;DHT22;21486;51.916;8.378;2023-06-05T01:02:15;13.50;86.80
35381;DHT22;21486;51.916;8.378;2023-06-05T01:04:41;13.50;86.80
35381;DHT22;21486;51.916;8.378;2023-06-05T01:07:14;13.40;87.40
35381;DHT22;21486;51.916;8.378;2023-06-05T01:09:42;13.50;87.40
35381;DHT22;21486;51.916;8.378;2023-06-05T01:12:30;13.50;87.30
35381;DHT22;21486;51.916;8.378;2023-06-05T01:15:01;13.50;87.30
35381;DHT22;21486;51.916;8.378;2023-06-05T01:17:27;13.40;88.00
35381;DHT22;21486;51.916;8.378;2023-06-05T01:19:55;13.40;88.30
35381;DHT22;21486;51.916;8.378;2023-06-05T01:22:20;13.50;87.20
35381;DHT22;21486;51.916;8.378;2023-06-05T01:24:46;13.40;87.70
35381;DHT22;21486;51.916;8.378;2023-06-05T01:27:34;13.50;87.40
35381;DHT22;21486;51.916;8.378;2023-06-05T01:30:18;13.40;86.80
35381;DHT22;21486;51.916;8.378;2023-06-05T01:32:59;13.40;87.30
35381;DHT22;21486;51.916;8.378;2023-06-05T01:35:29;13.30;87.90
35381;DHT22;21486;51.916;8.378;2023-06-05T01:37:59;13.10;88.80
35381;DHT22;21486;51.916;8.378;2023-06-05T01:40:25;13.10;89.90
35381;DHT22;21486;51.916;8.378;2023-06-05T01:42:52;13.10;89.00
35381;DHT22;21486;51.916;8.378;2023-06-05T01:45:19;13.00;88.90
35381;DHT22;21486;51.916;8.378;2023-06-05T01:47:45;13.10;89.20
35381;DHT22;21486;51.916;8.378;2023-06-05T01:50:13;13.10;89.50
35381;DHT22;21486;51.916;8.378;2023-06-05T01:52:40;13.00;89.70
35381;DHT22;21486;51.916;8.378;2023-06-05T01:55:18;13.00;89.70
35381;DHT22;21486;51.916;8.378;2023-06-05T01:57:45;13.00;90.10
35381;DHT22;21486;51.916;8.378;2023-06-05T02:00:12;12.90;90.20
35381;DHT22;21486;51.916;8.378;2023-06-05T02:02:42;12.80;90.40
35381;DHT22;21486;51.916;8.378;2023-06-05T02:05:09;12.70;90.80
35381;DHT22;21486;51.916;8.378;2023-06-05T02:07:39;12.70;91.00
35381;DHT22;21486;51.916;8.378;2023-06-05T02:10:07;12.70;91.10
35381;DHT22;21486;51.916;8.378;2023-06-05T02:12:38;12.70;91.10
35381;DHT22;21486;51.916;8.378;2023-06-05T02:15:04;12.60;91.40
35381;DHT22;21486;51.916;8.378;2023-06-05T02:17:30;12.60;91.30
35381;DHT22;21486;51.916;8.378;2023-06-05T02:19:56;12.50;91.60
35381;DHT22;21486;51.916;8.378;2023-06-05T02:22:21;12.40;91.90
35381;DHT22;21486;51.916;8.378;2023-06-05T02:24:49;12.30;92.20
35381;DHT22;21486;51.916;8.378;2023-06-05T02:27:15;12.30;92.40
35381;DHT22;21486;51.916;8.378;2023-06-05T02:29:41;12.30;92.70
35381;DHT22;21486;51.916;8.378;2023-06-05T02:32:06;12.30;93.20
35381;DHT22;21486;51.916;8.378;2023-06-05T02:34:32;12.20;93.10
35381;DHT22;21486;51.916;8.378;2023-06-05T02:36:59;12.20;93.30
35381;DHT22;21486;51.916;8.378;2023-06-05T02:39:25;12.10;93.60
35381;DHT22;21486;51.916;8.378;2023-06-05T02:41:51;12.10;93.90
35381;DHT22;21486;51.916;8.378;2023-06-05T02:44:17;12.10;94.10
35381;DHT22;21486;51.916;8.378;2023-06-05T02:46:42;12.10;94.30
35381;DHT22;21486;51.916;8.378;2023-06-05T02:49:08;12.10;94.00
35381;DHT22;21486;51.916;8.378;2023-06-05T02:51:33;12.10;94.20
35381;DHT22;21486;51.916;8.378;2023-06-05T02:54:00;12.10;94.50
35381;DHT22;21486;51.916;8.378;2023-06-05T02:56:26;12.00;94.50
35381;DHT22;21486;51.916;8.378;2023-06-05T02:58:52;12.00;94.90
35381;DHT22;21486;51.916;8.378;2023-06-05T03:01:18;12.00;95.10
35381;DHT22;21486;51.916;8.378;2023-06-05T03:03:44;12.00;95.20
35381;DHT22;21486;51.916;8.378;2023-06-05T03:06:10;12.00;95.40
35381;DHT22;21486;51.916;8.378;2023-06-05T03:08:37;12.00;95.60
35381;DHT22;21486;51.916;8.378;2023-06-05T03:11:04;11.80;96.00
35381;DHT22;21486;51.916;8.378;2023-06-05T03:13:30;11.80;96.40
35381;DHT22;21486;51.916;8.378;2023-06-05T03:15:56;11.90;96.40
35381;DHT22;21486;51.916;8.378;2023-06-05T03:18:25;11.90;96.30
35381;DHT22;21486;51.916;8.378;2023-06-05T03:20:52;11.90;96.20
35381;DHT22;21486;51.916;8.378;2023-06-05T03:23:21;11.90;96.40
35381;DHT22;21486;51.916;8.378;2023-06-05T03:25:47;11.80;96.50
35381;DHT22;21486;51.916;8.378;2023-06-05T03:28:13;11.80;96.70
35381;DHT22;21486;51.916;8.378;2023-06-05T03:30:38;11.90;96.70
35381;DHT22;21486;51.916;8.378;2023-06-05T03:33:05;11.90;96.70
35381;DHT22;21486;51.916;8.378;2023-06-05T03:35:31;11.80;96.90
35381;DHT22;21486;51.916;8.378;2023-06-05T03:37:58;11.80;97.30
35381;DHT22;21486;51.916;8.378;2023-06-05T03:40:24;11.80;97.20
35381;DHT22;21486;51.916;8.378;2023-06-05T03:42:49;11.80;97.30
35381;DHT22;21486;51.916;8.378;2023-06-05T03:45:15;11.90;97.30
35381;DHT22;21486;51.916;8.378;2023-06-05T03:47:41;11.90;97.30
35381;DHT22;21486;51.916;8.378;2023-06-05T03:50:07;11.80;97.30
35381;DHT22;21486;51.916;8.378;2023-06-05T03:52:33;11.80;97.40
35381;DHT22;21486;51.916;8.378;2023-06-05T03:54:58;12.00;97.20
35381;DHT22;21486;51.916;8.378;2023-06-05T03:57:25;11.90;97.30
35381;DHT22;21486;51.916;8.378;2023-06-05T03:59:51;11.90;97.70
35381;DHT22;21486;51.916;8.378;2023-06-05T04:02:16;11.90;97.60
35381;DHT22;21486;51.916;8.378;2023-06-05T04:04:42;11.80;97.90
35381;DHT22;21486;51.916;8.378;2023-06-05T04:07:07;11.70;98.30
35381;DHT22;21486;51.916;8.378;2023-06-05T04:09:33;11.80;98.20
35381;DHT22;21486;51.916;8.378;2023-06-05T04:11:58;11.80;98.40
35381;DHT22;21486;51.916;8.378;2023-06-05T04:14:24;11.90;98.10
35381;DHT22;21486;51.916;8.378;2023-06-05T04:16:50;11.90;98.00
35381;DHT22;21486;51.916;8.378;2023-06-05T04:19:16;12.00;98.00
35381;DHT22;21486;51.916;8.378;2023-06-05T04:21:41;12.00;98.00
35381;DHT22;21486;51.916;8.378;2023-06-05T04:24:08;12.00;98.00
35381;DHT22;21486;51.916;8.378;2023-06-05T04:26:35;12.00;98.30
35381;DHT22;21486;51.916;8.378;2023-06-05T04:29:03;12.20;98.30
35381;DHT22;21486;51.916;8.378;2023-06-05T04:31:30;12.70;97.10
35381;DHT22;21486;51.916;8.378;2023-06-05T04:33:56;13.20;95.00
35381;DHT22;21486;51.916;8.378;2023-06-05T04:36:22;13.50;94.00
35381;DHT22;21486;51.916;8.378;2023-06-05T04:38:48;13.40;94.20
35381;DHT22;21486;51.916;8.378;2023-06-05T04:41:13;13.60;94.20
35381;DHT22;21486;51.916;8.378;2023-06-05T04:43:39;14.10;92.70
35381;DHT22;21486;51.916;8.378;2023-06-05T04:46:05;14.80;91.10
35381;DHT22;21486;51.916;8.378;2023-06-05T04:48:30;15.20;89.20
35381;DHT22;21486;51.916;8.378;2023-06-05T04:50:56;15.90;85.40
35381;DHT22;21486;51.916;8.378;2023-06-05T04:53:23;16.60;81.10
35381;DHT22;21486;51.916;8.378;2023-06-05T04:55:49;17.20;77.60
35381;DHT22;21486;51.916;8.378;2023-06-05T04:58:15;17.90;74.50
35381;DHT22;21486;51.916;8.378;2023-06-05T05:00:42;18.00;72.80
35381;DHT22;21486;51.916;8.378;2023-06-05T05:03:10;18.10;71.90
35381;DHT22;21486;51.916;8.378;2023-06-05T05:05:39;18.50;69.80
35381;DHT22;21486;51.916;8.378;2023-06-05T05:08:04;18.80;69.40
35381;DHT22;21486;51.916;8.378;2023-06-05T05:10:30;18.80;68.20
35381;DHT22;21486;51.916;8.378;2023-06-05T05:12:56;19.40;66.40
35381;DHT22;21486;51.916;8.378;2023-06-05T05:15:21;19.10;66.60
35381;DHT22;21486;51.916;8.378;2023-06-05T05:17:48;19.60;65.60
35381;DHT22;21486;51.916;8.378;2023-06-05T05:20:14;19.90;63.70
35381;DHT22;21486;51.916;8.378;2023-06-05T05:22:40;20.30;62.50
35381;DHT22;21486;51.916;8.378;2023-06-05T05:25:06;20.40;61.30
35381;DHT22;21486;51.916;8.378;2023-06-05T05:27:32;20.10;62.20
35381;DHT22;21486;51.916;8.378;2023-06-05T05:29:57;19.90;63.10
35381;DHT22;21486;51.916;8.378;2023-06-05T05:32:23;20.30;61.50
35381;DHT22;21486;51.916;8.378;2023-06-05T05:34:48;20.40;61.70
35381;DHT22;21486;51.916;8.378;2023-06-05T05:37:16;20.50;60.50
35381;DHT22;21486;51.916;8.378;2023-06-05T05:39:41;20.90;59.50
35381;DHT22;21486;51.916;8.378;2023-06-05T05:42:07;21.10;59.40
35381;DHT22;21486;51.916;8.378;2023-06-05T05:44:32;21.40;58.40
35381;DHT22;21486;51.916;8.378;2023-06-05T05:46:58;21.70;58.00
35381;DHT22;21486;51.916;8.378;2023-06-05T05:49:24;21.90;57.00
35381;DHT22;21486;51.916;8.378;2023-06-05T05:51:50;21.90;56.50
35381;DHT22;21486;51.916;8.378;2023-06-05T05:54:16;22.30;56.10
35381;DHT22;21486;51.916;8.378;2023-06-05T05:56:41;22.40;54.80
35381;DHT22;21486;51.916;8.378;2023-06-05T05:59:07;22.40;55.20
35381;DHT22;21486;51.916;8.378;2023-06-05T06:01:33;22.90;54.10
35381;DHT22;21486;51.916;8.378;2023-06-05T06:03:59;23.30;53.50
35381;DHT22;21486;51.916;8.378;2023-06-05T06:06:24;23.80;52.60
35381;DHT22;21486;51.916;8.378;2023-06-05T06:08:50;23.30;52.10
35381;DHT22;21486;51.916;8.378;2023-06-05T06:11:16;23.70;52.20
35381;DHT22;21486;51.916;8.378;2023-06-05T06:13:43;24.00;51.20
35381;DHT22;21486;51.916;8.378;2023-06-05T06:16:08;24.10;51.80
35381;DHT22;21486;51.916;8.378;2023-06-05T06:18:35;24.50;50.90
35381;DHT22;21486;51.916;8.378;2023-06-05T06:34:35;25.50;47.70
35381;DHT22;21486;51.916;8.378;2023-06-05T06:37:21;25.90;48.00
35381;DHT22;21486;51.916;8.378;2023-06-05T06:39:53;26.60;46.90
35381;DHT22;21486;51.916;8.378;2023-06-05T06:49:02;26.40;46.40
35381;DHT22;21486;51.916;8.378;2023-06-05T06:51:48;26.40;46.10
35381;DHT22;21486;51.916;8.378;2023-06-05T06:54:14;26.30;46.70
35381;DHT22;21486;51.916;8.378;2023-06-05T06:56:39;25.80;47.00
35381;DHT22;21486;51.916;8.378;2023-06-05T06:59:23;26.20;46.70
35381;DHT22;21486;51.916;8.378;2023-06-05T07:02:11;26.30;46.90
35381;DHT22;21486;51.916;8.378;2023-06-05T07:04:46;26.60;46.80
35381;DHT22;21486;51.916;8.378;2023-06-05T07:07:22;27.00;45.50
35381;DHT22;21486;51.916;8.378;2023-06-05T07:09:53;27.30;45.10
35381;DHT22;21486;51.916;8.378;2023-06-05T07:12:45;26.40;46.30
35381;DHT22;21486;51.916;8.378;2023-06-05T07:18:34;27.60;44.70
35381;DHT22;21486;51.916;8.378;2023-06-05T07:21:04;27.90;44.10
35381;DHT22;21486;51.916;8.378;2023-06-05T07:27:06;27.80;44.10
35381;DHT22;21486;51.916;8.378;2023-06-05T07:29:33;27.10;44.70
35381;DHT22;21486;51.916;8.378;2023-06-05T07:31:59;26.30;45.70
35381;DHT22;21486;51.916;8.378;2023-06-05T07:35:27;26.70;45.50
35381;DHT22;21486;51.916;8.378;2023-06-05T07:37:56;27.40;44.70
35381;DHT22;21486;51.916;8.378;2023-06-05T07:40:43;28.60;43.00
35381;DHT22;21486;51.916;8.378;2023-06-05T07:50:21;29.10;41.90
35381;DHT22;21486;51.916;8.378;2023-06-05T07:52:46;29.50;40.10
35381;DHT22;21486;51.916;8.378;2023-06-05T07:55:12;29.50;41.00
35381;DHT22;21486;51.916;8.378;2023-06-05T07:57:37;29.30;40.50
35381;DHT22;21486;51.916;8.378;2023-06-05T08:00:04;29.00;41.40
35381;DHT22;21486;51.916;8.378;2023-06-05T08:02:35;28.80;41.10
35381;DHT22;21486;51.916;8.378;2023-06-05T08:05:02;28.00;42.00
35381;DHT22;21486;51.916;8.378;2023-06-05T08:07:28;27.80;43.30
35381;DHT22;21486;51.916;8.378;2023-06-05T08:09:53;28.00;44.20
35381;DHT22;21486;51.916;8.378;2023-06-05T08:12:19;28.60;42.60
35381;DHT22;21486;51.916;8.378;2023-06-05T08:14:44;28.10;44.10
35381;DHT22;21486;51.916;8.378;2023-06-05T08:17:10;28.80;42.80
35381;DHT22;21486;51.916;8.378;2023-06-05T08:19:36;29.10;40.90
35381;DHT22;21486;51.916;8.378;2023-06-05T08:22:02;29.10;41.70
35381;DHT22;21486;51.916;8.378;2023-06-05T08:24:29;28.80;41.80
35381;DHT22;21486;51.916;8.378;2023-06-05T08:26:55;29.00;41.10
35381;DHT22;21486;51.916;8.378;2023-06-05T08:29:20;28.80;40.50
35381;DHT22;21486;51.916;8.378;2023-06-05T08:31:46;28.60;41.60
35381;DHT22;21486;51.916;8.378;2023-06-05T08:34:12;28.80;41.20
35381;DHT22;21486;51.916;8.378;2023-06-05T08:36:37;28.90;41.50
35381;DHT22;21486;51.916;8.378;2023-06-05T08:39:03;29.10;41.00
35381;DHT22;21486;51.916;8.378;2023-06-05T08:41:30;28.90;39.90
35381;DHT22;21486;51.916;8.378;2023-06-05T08:43:59;28.30;41.20
35381;DHT22;21486;51.916;8.378;2023-06-05T08:46:28;28.10;41.80
35381;DHT22;21486;51.916;8.378;2023-06-05T08:48:56;27.90;42.20
35381;DHT22;21486;51.916;8.378;2023-06-05T08:51:22;27.80;41.50
35381;DHT22;21486;51.916;8.378;2023-06-05T08:54:04;28.10;41.90
35381;DHT22;21486;51.916;8.378;2023-06-05T08:56:30;28.00;41.20
35381;DHT22;21486;51.916;8.378;2023-06-05T08:58:57;28.20;41.30
35381;DHT22;21486;51.916;8.378;2023-06-05T09:01:23;28.40;40.60
35381;DHT22;21486;51.916;8.378;2023-06-05T09:03:48;28.80;39.60
35381;DHT22;21486;51.916;8.378;2023-06-05T09:06:14;28.20;39.10
35381;DHT22;21486;51.916;8.378;2023-06-05T09:08:39;28.80;40.40
35381;DHT22;21486;51.916;8.378;2023-06-05T09:13:47;28.90;39.50
35381;DHT22;21486;51.916;8.378;2023-06-05T09:16:12;29.40;39.90
35381;DHT22;21486;51.916;8.378;2023-06-05T09:18:54;29.60;38.70
35381;DHT22;21486;51.916;8.378;2023-06-05T09:21:20;30.10;38.60
35381;DHT22;21486;51.916;8.378;2023-06-05T09:23:45;30.20;37.90
35381;DHT22;21486;51.916;8.378;2023-06-05T09:26:11;29.90;36.60
35381;DHT22;21486;51.916;8.378;2023-06-05T09:28:52;30.10;37.90
35381;DHT22;21486;51.916;8.378;2023-06-05T09:31:19;30.50;36.20
35381;DHT22;21486;51.916;8.378;2023-06-05T09:33:45;29.90;36.60
35381;DHT22;21486;51.916;8.378;2023-06-05T09:36:19;30.00;36.60
35381;DHT22;21486;51.916;8.378;2023-06-05T09:38:44;30.30;37.20
35381;DHT22;21486;51.916;8.378;2023-06-05T09:41:11;31.20;36.90
35381;DHT22;21486;51.916;8.378;2023-06-05T09:43:37;31.90;35.60
35381;DHT22;21486;51.916;8.378;2023-06-05T09:46:10;32.20;34.70
35381;DHT22;21486;51.916;8.378;2023-06-05T09:48:35;31.60;35.80
35381;DHT22;21486;51.916;8.378;2023-06-05T09:51:20;31.30;36.10
35381;DHT22;21486;51.916;8.378;2023-06-05T09:53:46;31.60;34.00
35381;DHT22;21486;51.916;8.378;2023-06-05T09:56:13;32.40;33.50
35381;DHT22;21486;51.916;8.378;2023-06-05T09:58:49;32.10;33.80
35381;DHT22;21486;51.916;8.378;2023-06-05T10:01:16;32.20;34.20
35381;DHT22;21486;51.916;8.378;2023-06-05T10:03:44;32.00;34.30
35381;DHT22;21486;51.916;8.378;2023-06-05T10:06:10;31.50;34.60
35381;DHT22;21486;51.916;8.378;2023-06-05T10:08:36;31.30;35.10
35381;DHT22;21486;51.916;8.378;2023-06-05T10:11:02;31.20;35.20
35381;DHT22;21486;51.916;8.378;2023-06-05T10:13:28;31.40;33.90
35381;DHT22;21486;51.916;8.378;2023-06-05T10:15:54;31.50;33.40
35381;DHT22;21486;51.916;8.378;2023-06-05T10:18:21;32.00;34.00
35381;DHT22;21486;51.916;8.378;2023-06-05T10:20:46;32.30;35.00
35381;DHT22;21486;51.916;8.378;2023-06-05T10:23:12;32.40;34.30
35381;DHT22;21486;51.916;8.378;2023-06-05T10:25:40;32.20;35.10
35381;DHT22;21486;51.916;8.378;2023-06-05T10:28:15;32.10;34.30
35381;DHT22;21486;51.916;8.378;2023-06-05T10:33:45;31.60;34.70
35381;DHT22;21486;51.916;8.378;2023-06-05T10:38:41;31.50;35.20
35381;DHT22;21486;51.916;8.378;2023-06-05T10:41:07;31.50;35.40
35381;DHT22;21486;51.916;8.378;2023-06-05T10:43:33;31.00;35.70
35381;DHT22;21486;51.916;8.378;2023-06-05T10:46:02;31.00;34.60
35381;DHT22;21486;51.916;8.378;2023-06-05T10:51:45;31.70;33.80
35381;DHT22;21486;51.916;8.378;2023-06-05T10:59:21;31.00;35.80
35381;DHT22;21486;51.916;8.378;2023-06-05T11:07:14;31.50;30.70
35381;DHT22;21486;51.916;8.378;2023-06-05T11:10:03;30.90;32.70
35381;DHT22;21486;51.916;8.378;2023-06-05T11:12:26;30.50;30.40
35381;DHT22;21486;51.916;8.378;2023-06-05T11:14:51;30.70;32.00
35381;DHT22;21486;51.916;8.378;2023-06-05T11:17:29;30.70;31.50
35381;DHT22;21486;51.916;8.378;2023-06-05T11:19:55;30.50;32.50
35381;DHT22;21486;51.916;8.378;2023-06-05T11:22:20;30.80;32.90
35381;DHT22;21486;51.916;8.378;2023-06-05T11:24:46;30.50;32.10
35381;DHT22;21486;51.916;8.378;2023-06-05T11:27:42;30.10;31.80
35381;DHT22;21486;51.916;8.378;2023-06-05T11:30:11;30.10;32.50
35381;DHT22;21486;51.916;8.378;2023-06-05T11:32:36;29.90;33.10
35381;DHT22;21486;51.916;8.378;2023-06-05T11:35:02;29.90;34.20
35381;DHT22;21486;51.916;8.378;2023-06-05T11:37:28;30.40;35.10
35381;DHT22;21486;51.916;8.378;2023-06-05T11:39:54;31.10;32.30
35381;DHT22;21486;51.916;8.378;2023-06-05T11:42:22;31.20;32.80
35381;DHT22;21486;51.916;8.378;2023-06-05T11:44:51;31.60;31.60
35381;DHT22;21486;51.916;8.378;2023-06-05T11:47:23;31.30;31.20
35381;DHT22;21486;51.916;8.378;2023-06-05T11:49:48;31.70;31.60
35381;DHT22;21486;51.916;8.378;2023-06-05T11:52:17;31.00;32.00
35381;DHT22;21486;51.916;8.378;2023-06-05T11:54:43;30.40;32.50
35381;DHT22;21486;51.916;8.378;2023-06-05T11:57:18;30.40;33.30
35381;DHT22;21486;51.916;8.378;2023-06-05T11:59:44;30.50;32.70
35381;DHT22;21486;51.916;8.378;2023-06-05T12:02:10;30.50;34.50
35381;DHT22;21486;51.916;8.378;2023-06-05T12:04:38;30.50;33.40
35381;DHT22;21486;51.916;8.378;2023-06-05T12:07:05;30.00;34.10
35381;DHT22;21486;51.916;8.378;2023-06-05T12:09:30;29.70;34.60
35381;DHT22;21486;51.916;8.378;2023-06-05T12:12:06;29.70;36.00
35381;DHT22;21486;51.916;8.378;2023-06-05T12:14:34;29.90;35.80
35381;DHT22;21486;51.916;8.378;2023-06-05T12:17:00;29.60;34.90
35381;DHT22;21486;51.916;8.378;2023-06-05T12:19:33;29.50;35.80
35381;DHT22;21486;51.916;8.378;2023-06-05T12:22:02;29.50;36.40
35381;DHT22;21486;51.916;8.378;2023-06-05T12:24:29;29.10;35.60
35381;DHT22;21486;51.916;8.378;2023-06-05T12:26:58;28.90;37.20
35381;DHT22;21486;51.916;8.378;2023-06-05T12:29:25;28.80;37.00
35381;DHT22;21486;51.916;8.378;2023-06-05T12:31:51;28.70;36.90
35381;DHT22;21486;51.916;8.378;2023-06-05T12:34:17;28.30;38.30
35381;DHT22;21486;51.916;8.378;2023-06-05T12:36:43;28.10;38.00
35381;DHT22;21486;51.916;8.378;2023-06-05T12:39:12;28.20;38.90
35381;DHT22;21486;51.916;8.378;2023-06-05T12:41:39;28.10;37.40
35381;DHT22;21486;51.916;8.378;2023-06-05T12:44:05;27.90;37.80
35381;DHT22;21486;51.916;8.378;2023-06-05T12:46:32;27.70;38.10
35381;DHT22;21486;51.916;8.378;2023-06-05T12:48:58;27.60;39.50
35381;DHT22;21486;51.916;8.378;2023-06-05T12:51:25;27.10;39.10
35381;DHT22;21486;51.916;8.378;2023-06-05T12:53:54;27.30;40.10
35381;DHT22;21486;51.916;8.378;2023-06-05T12:56:19;27.40;38.90
35381;DHT22;21486;51.916;8.378;2023-06-05T12:58:56;27.30;38.50
35381;DHT22;21486;51.916;8.378;2023-06-05T13:01:22;26.80;38.60
35381;DHT22;21486;51.916;8.378;2023-06-05T13:03:48;26.60;39.80
35381;DHT22;21486;51.916;8.378;2023-06-05T13:06:14;26.60;39.60
35381;DHT22;21486;51.916;8.378;2023-06-05T13:08:39;26.60;40.80
35381;DHT22;21486;51.916;8.378;2023-06-05T13:11:05;26.40;39.50
35381;DHT22;21486;51.916;8.378;2023-06-05T13:13:30;26.50;39.60
35381;DHT22;21486;51.916;8.378;2023-06-05T13:15:56;26.30;39.80
35381;DHT22;21486;51.916;8.378;2023-06-05T13:18:21;26.40;39.90
35381;DHT22;21486;51.916;8.378;2023-06-05T13:20:46;26.40;39.50
35381;DHT22;21486;51.916;8.378;2023-06-05T13:23:12;26.60;39.10
35381;DHT22;21486;51.916;8.378;2023-06-05T13:25:37;26.40;38.80
35381;DHT22;21486;51.916;8.378;2023-06-05T13:28:05;26.20;38.00
35381;DHT22;21486;51.916;8.378;2023-06-05T13:30:32;26.20;39.40
35381;DHT22;21486;51.916;8.378;2023-06-05T13:32:57;26.20;39.40
35381;DHT22;21486;51.916;8.378;2023-06-05T13:35:23;26.10;38.80
35381;DHT22;21486;51.916;8.378;2023-06-05T13:37:48;25.80;39.40
35381;DHT22;21486;51.916;8.378;2023-06-05T13:40:15;25.40;39.70
35381;DHT22;21486;51.916;8.378;2023-06-05T13:42:40;25.50;40.70
35381;DHT22;21486;51.916;8.378;2023-06-05T13:45:06;25.40;40.60
35381;DHT22;21486;51.916;8.378;2023-06-05T13:47:32;25.50;40.30
35381;DHT22;21486;51.916;8.378;2023-06-05T13:49:57;25.70;42.90
35381;DHT22;21486;51.916;8.378;2023-06-05T13:52:23;25.90;39.40
35381;DHT22;21486;51.916;8.378;2023-06-05T13:54:48;26.00;41.70
35381;DHT22;21486;51.916;8.378;2023-06-05T13:57:14;26.00;39.10
35381;DHT22;21486;51.916;8.378;2023-06-05T13:59:40;25.80;39.60
35381;DHT22;21486;51.916;8.378;2023-06-05T14:02:06;25.40;39.80
35381;DHT22;21486;51.916;8.378;2023-06-05T14:04:31;25.30;39.80
35381;DHT22;21486;51.916;8.378;2023-06-05T14:06:57;25.30;41.00
35381;DHT22;21486;51.916;8.378;2023-06-05T14:09:24;25.50;39.30
35381;DHT22;21486;51.916;8.378;2023-06-05T14:11:49;25.40;39.80
35381;DHT22;21486;51.916;8.378;2023-06-05T14:14:15;25.50;39.30
35381;DHT22;21486;51.916;8.378;2023-06-05T14:16:40;25.40;39.50
35381;DHT22;21486;51.916;8.378;2023-06-05T14:19:06;25.40;41.60
35381;DHT22;21486;51.916;8.378;2023-06-05T14:21:31;25.60;38.30
35381;DHT22;21486;51.916;8.378;2023-06-05T14:23:57;25.50;38.90
35381;DHT22;21486;51.916;8.378;2023-06-05T14:26:22;25.40;37.60
35381;DHT22;21486;51.916;8.378;2023-06-05T14:28:48;25.20;39.30
35381;DHT22;21486;51.916;8.378;2023-06-05T14:31:13;25.20;39.60
35381;DHT22;21486;51.916;8.378;2023-06-05T14:33:39;25.40;40.20
35381;DHT22;21486;51.916;8.378;2023-06-05T14:36:04;25.50;40.80
35381;DHT22;21486;51.916;8.378;2023-06-05T14:38:30;25.50;41.40
35381;DHT22;21486;51.916;8.378;2023-06-05T14:40:56;25.40;41.70
35381;DHT22;21486;51.916;8.378;2023-06-05T14:43:23;25.40;42.80
35381;DHT22;21486;51.916;8.378;2023-06-05T14:45:48;25.20;42.70
35381;DHT22;21486;51.916;8.378;2023-06-05T14:48:14;25.00;42.20
35381;DHT22;21486;51.916;8.378;2023-06-05T14:50:39;25.00;44.10
35381;DHT22;21486;51.916;8.378;2023-06-05T14:53:05;25.30;43.60
35381;DHT22;21486;51.916;8.378;2023-06-05T14:55:30;25.30;42.10
35381;DHT22;21486;51.916;8.378;2023-06-05T14:57:56;25.40;43.00
35381;DHT22;21486;51.916;8.378;2023-06-05T15:00:21;25.70;42.10
35381;DHT22;21486;51.916;8.378;2023-06-05T15:02:47;25.80;41.00
35381;DHT22;21486;51.916;8.378;2023-06-05T15:05:12;25.70;41.10
35381;DHT22;21486;51.916;8.378;2023-06-05T15:07:40;25.70;41.10
35381;DHT22;21486;51.916;8.378;2023-06-05T15:10:06;25.80;40.20
35381;DHT22;21486;51.916;8.378;2023-06-05T15:12:33;25.70;40.50
35381;DHT22;21486;51.916;8.378;2023-06-05T15:14:58;25.70;41.10
35381;DHT22;21486;51.916;8.378;2023-06-05T15:17:24;25.70;40.90
35381;DHT22;21486;51.916;8.378;2023-06-05T15:19:49;25.50;39.90
35381;DHT22;21486;51.916;8.378;2023-06-05T15:22:15;25.70;40.70
35381;DHT22;21486;51.916;8.378;2023-06-05T15:24:40;25.70;40.90
35381;DHT22;21486;51.916;8.378;2023-06-05T15:27:06;25.40;41.60
35381;DHT22;21486;51.916;8.378;2023-06-05T15:29:33;25.20;41.20
35381;DHT22;21486;51.916;8.378;2023-06-05T15:31:58;25.10;40.50
35381;DHT22;21486;51.916;8.378;2023-06-05T15:34:24;25.10;40.90
35381;DHT22;21486;51.916;8.378;2023-06-05T15:36:49;25.00;40.80
35381;DHT22;21486;51.916;8.378;2023-06-05T15:39:15;25.20;41.50
35381;DHT22;21486;51.916;8.378;2023-06-05T15:41:41;25.30;40.00
35381;DHT22;21486;51.916;8.378;2023-06-05T15:44:07;25.40;39.90
35381;DHT22;21486;51.916;8.378;2023-06-05T15:46:35;25.30;40.40
35381;DHT22;21486;51.916;8.378;2023-06-05T15:49:01;25.40;40.10
35381;DHT22;21486;51.916;8.378;2023-06-05T15:51:26;25.20;40.00
35381;DHT22;21486;51.916;8.378;2023-06-05T15:53:54;25.10;40.10
35381;DHT22;21486;51.916;8.378;2023-06-05T15:56:19;25.10;40.10
35381;DHT22;21486;51.916;8.378;2023-06-05T15:58:46;25.00;40.20
35381;DHT22;21486;51.916;8.378;2023-06-05T16:01:11;25.00;40.90
35381;DHT22;21486;51.916;8.378;2023-06-05T16:03:37;25.00;40.30
35381;DHT22;21486;51.916;8.378;2023-06-05T16:06:02;24.80;40.20
35381;DHT22;21486;51.916;8.378;2023-06-05T16:08:28;24.90;39.50
35381;DHT22;21486;51.916;8.378;2023-06-05T16:10:54;24.80;39.70
35381;DHT22;21486;51.916;8.378;2023-06-05T16:13:19;24.90;40.20
35381;DHT22;21486;51.916;8.378;2023-06-05T16:15:46;24.90;39.90
35381;DHT22;21486;51.916;8.378;2023-06-05T16:18:12;24.90;39.20
35381;DHT22;21486;51.916;8.378;2023-06-05T16:20:38;24.80;39.00
35381;DHT22;21486;51.916;8.378;2023-06-05T16:23:03;24.90;40.30
35381;DHT22;21486;51.916;8.378;2023-06-05T16:25:29;25.10;40.20
35381;DHT22;21486;51.916;8.378;2023-06-05T16:27:54;25.00;39.40
35381;DHT22;21486;51.916;8.378;2023-06-05T16:30:20;25.00;38.80